Time;durP1;ratioP1;P1;durP2;ratioP2;P2;SDS_P1;SDS_P2;PMS_P1;PMS_P2;Temp;Humidity;BMP_temperature;BMP_pressure;BME280_temperature;BME280_humidity;BME280_pressure;Samples;Min_cycle;Max_cycle;Signal;HPM_P1;HPM_P2
2023/01/18 00:01:06;;;;;;;6.15;4.72;;;0.40;99.90;;;;;;5035976;28;92475;-73
2023/01/18 00:03:34;;;;;;;11.85;4.47;;;0.40;99.90;;;;;;5034533;28;93230;-74
2023/01/18 00:06:03;;;;;;;7.45;4.50;;;0.30;99.90;;;;;;5034512;28;93068;-73
2023/01/18 00:08:32;;;;;;;6.78;4.40;;;0.30;99.90;;;;;;5035762;28;92454;-74
2023/01/18 00:11:08;;;;;;;6.72;4.43;;;0.30;99.90;;;;;;5017997;28;91879;-73
2023/01/18 00:13:36;;;;;;;5.50;4.40;;;0.30;99.90;;;;;;5034437;28;96138;-73
2023/01/18 00:16:06;;;;;;;4.72;4.18;;;0.30;99.90;;;;;;5017596;28;95004;-73
2023/01/18 00:18:36;;;;;;;5.82;4.63;;;0.30;99.90;;;;;;5033165;28;94978;-73
2023/01/18 00:21:10;;;;;;;5.57;4.03;;;0.30;99.90;;;;;;5017655;28;92449;-73
2023/01/18 00:23:37;;;;;;;;;;;0.30;99.90;;;;;;5034570;28;96033;-72
2023/01/18 00:26:07;;;;;;;5.55;3.95;;;0.30;99.90;;;;;;5036641;27;92521;-72
2023/01/18 00:28:34;;;;;;;6.13;5.03;;;0.20;99.90;;;;;;5018149;28;92912;-73
2023/01/18 00:31:07;;;;;;;8.25;5.10;;;0.20;99.90;;;;;;5034044;28;92510;-73
2023/01/18 00:33:34;;;;;;;4.85;4.20;;;0.20;99.90;;;;;;5034826;28;93513;-73
2023/01/18 00:36:02;;;;;;;7.05;4.80;;;0.20;99.90;;;;;;5035834;28;93152;-72
2023/01/18 00:38:29;;;;;;;6.07;4.78;;;0.20;99.90;;;;;;5035243;28;92556;-73
2023/01/18 00:40:56;;;;;;;7.75;6.05;;;0.20;99.90;;;;;;5034265;28;92498;-73
2023/01/18 00:43:39;;;;;;;6.07;4.65;;;0.20;99.90;;;;;;5032775;28;95639;-73
2023/01/18 00:46:15;;;;;;;5.93;5.32;;;0.20;99.90;;;;;;5035286;28;95389;-73
2023/01/18 00:48:43;;;;;;;5.45;4.38;;;0.20;99.90;;;;;;5033972;28;92498;-73
2023/01/18 00:51:13;;;;;;;5.88;5.18;;;0.20;99.90;;;;;;5017173;28;92501;-73
2023/01/18 00:53:44;;;;;;;6.72;6.07;;;0.20;99.90;;;;;;5035394;28;93349;-73
2023/01/18 00:56:18;;;;;;;7.75;5.35;;;0.20;99.90;;;;;;5033532;28;95497;-73
2023/01/18 00:58:45;;;;;;;8.38;4.72;;;0.20;99.90;;;;;;5035520;28;92461;-73
2023/01/18 01:01:13;;;;;;;6.80;5.00;;;0.20;99.90;;;;;;5035363;27;91667;-73
2023/01/18 01:06:43;;;;;;;7.03;4.95;;;0.20;99.90;;;;;;5033773;28;92973;-73
2023/01/18 01:09:13;;;;;;;8.98;5.45;;;0.10;99.90;;;;;;5034953;27;95281;-73
2023/01/18 01:12:31;;;;;;;6.43;5.47;;;0.20;99.90;;;;;;5020252;28;92565;-73
2023/01/18 01:28:16;;;;;;;7.43;5.03;;;0.00;99.90;;;;;;5036724;28;95556;-73
2023/01/18 01:30:44;;;;;;;6.95;5.70;;;-0.10;99.90;;;;;;5036970;28;93063;-73
2023/01/18 01:33:11;;;;;;;8.77;5.75;;;0.00;99.90;;;;;;5036757;28;92499;-73
2023/01/18 01:35:38;;;;;;;8.93;6.13;;;-0.10;99.90;;;;;;5035373;28;95560;-73
2023/01/18 01:38:05;;;;;;;6.78;5.93;;;0.00;99.90;;;;;;5019938;28;97972;-73
2023/01/18 01:40:32;;;;;;;12.82;6.15;;;-0.10;99.90;;;;;;5038113;28;92409;-73
2023/01/18 01:42:59;;;;;;;9.35;5.80;;;-0.10;99.90;;;;;;5036989;28;92441;-73
2023/01/18 01:45:30;;;;;;;7.55;5.43;;;-0.10;99.90;;;;;;5019699;28;92391;-73
2023/01/18 01:47:57;;;;;;;8.35;5.97;;;-0.10;99.90;;;;;;5036700;28;93398;-73
2023/01/18 01:50:37;;;;;;;9.73;6.32;;;-0.10;99.90;;;;;;5036516;28;93056;-73
2023/01/18 01:53:05;;;;;;;6.07;5.47;;;-0.10;99.90;;;;;;5038405;28;91710;-73
2023/01/18 01:55:36;;;;;;;9.23;6.93;;;-0.20;99.90;;;;;;5037424;28;93348;-74
2023/01/18 01:58:11;;;;;;;9.13;6.45;;;-0.20;99.90;;;;;;5036727;28;93192;-73
2023/01/18 02:00:38;;;;;;;9.60;6.80;;;-0.20;99.90;;;;;;5036373;28;95597;-73
2023/01/18 02:03:09;;;;;;;10.70;7.18;;;-0.20;99.90;;;;;;5037776;28;92527;-73
2023/01/18 02:05:42;;;;;;;8.23;6.55;;;-0.20;99.90;;;;;;5037453;28;93428;-73
2023/01/18 02:08:12;;;;;;;9.73;7.10;;;-0.20;99.90;;;;;;5037793;28;92756;-73
2023/01/18 02:10:39;;;;;;;8.07;7.07;;;-0.20;99.90;;;;;;5037743;28;92893;-73
2023/01/18 02:13:08;;;;;;;9.00;7.68;;;-0.30;99.90;;;;;;5019812;28;92576;-73
2023/01/18 02:16:06;;;;;;;9.13;7.38;;;-0.30;99.90;;;;;;5035750;28;95720;-73
2023/01/18 02:18:57;;;;;;;9.95;7.35;;;-0.30;99.90;;;;;;5037780;28;92992;-73
2023/01/18 02:21:32;;;;;;;10.80;7.15;;;-0.30;99.90;;;;;;5034797;28;92452;-73
2023/01/18 02:24:14;;;;;;;9.60;7.15;;;-0.40;99.90;;;;;;5037630;28;92465;-73
2023/01/18 02:27:04;;;;;;;8.80;7.40;;;-0.40;99.90;;;;;;5033941;28;98339;-73
2023/01/18 02:29:37;;;;;;;7.75;6.72;;;-0.40;99.90;;;;;;5035578;28;97864;-73
2023/01/18 02:32:16;;;;;;;9.73;7.35;;;-0.40;99.90;;;;;;5037546;28;92405;-73
2023/01/18 02:35:04;;;;;;;8.65;7.65;;;-0.40;99.90;;;;;;5018658;28;93162;-73
2023/01/18 02:37:50;;;;;;;10.80;7.03;;;-0.40;99.90;;;;;;5036938;28;93380;-73
2023/01/18 02:40:30;;;;;;;9.90;7.70;;;-0.40;99.90;;;;;;5037327;28;92986;-73
2023/01/18 02:48:37;;;;;;;9.77;7.30;;;-0.40;99.90;;;;;;5035427;28;95769;-73
2023/01/18 02:51:04;;;;;;;10.70;7.97;;;-0.40;99.90;;;;;;5036990;28;93181;-73
2023/01/18 02:53:36;;;;;;;12.05;8.43;;;-0.40;99.90;;;;;;5035594;28;94835;-73
2023/01/18 02:56:06;;;;;;;11.65;8.02;;;-0.50;99.90;;;;;;5018763;28;92470;-73
2023/01/18 02:58:46;;;;;;;11.02;8.57;;;-0.50;99.90;;;;;;5036363;27;93249;-72
2023/01/18 03:01:29;;;;;;;12.43;8.25;;;-0.50;99.90;;;;;;5036906;28;93016;-72
2023/01/18 03:04:10;;;;;;;12.95;9.32;;;-0.50;99.90;;;;;;5035687;28;92472;-73
2023/01/18 03:06:40;;;;;;;16.98;10.20;;;-0.60;99.90;;;;;;5018626;28;92497;-73
2023/01/18 03:09:08;;;;;;;15.00;10.35;;;-0.60;99.90;;;;;;5036145;28;93098;-73
2023/01/18 03:12:10;;;;;;;12.02;9.55;;;-0.60;99.90;;;;;;5034895;28;96234;-73
2023/01/18 03:14:49;;;;;;;15.32;11.05;;;-0.50;99.90;;;;;;5035390;28;92484;-74
2023/01/18 03:17:24;;;;;;;14.10;10.57;;;-0.60;99.90;;;;;;5035018;28;93068;-74
2023/01/18 03:25:31;;;;;;;16.58;11.60;;;-0.60;99.90;;;;;;5034673;28;93061;-73
2023/01/18 03:33:44;;;;;;;13.98;10.75;;;-0.70;99.90;;;;;;5034914;27;93105;-73
2023/01/18 03:36:30;;;;;;;17.67;12.48;;;-0.70;99.90;;;;;;5017697;28;92485;-73
2023/01/18 03:39:09;;;;;;;17.27;11.65;;;-0.70;99.90;;;;;;5035884;28;91690;-74
2023/01/18 03:41:41;;;;;;;17.60;11.95;;;-0.70;99.90;;;;;;5035401;28;93144;-74
2023/01/18 03:44:22;;;;;;;18.70;12.18;;;-0.70;99.90;;;;;;5034284;28;93048;-73
2023/01/18 03:46:49;;;;;;;18.05;11.90;;;-0.70;99.90;;;;;;5032779;28;94795;-74
2023/01/18 03:49:17;;;;;;;16.50;11.38;;;-0.70;99.90;;;;;;5035691;28;92969;-73
2023/01/18 03:51:53;;;;;;;16.50;11.20;;;-0.70;99.90;;;;;;5017092;28;96178;-74
2023/01/18 03:54:35;;;;;;;19.63;12.38;;;-0.70;99.90;;;;;;5035442;27;93372;-74
2023/01/18 03:57:18;;;;;;;15.63;11.55;;;-0.70;99.90;;;;;;5035377;27;92451;-74
2023/01/18 03:59:46;;;;;;;15.20;12.00;;;-0.70;99.90;;;;;;5034035;28;92982;-72
2023/01/18 04:02:16;;;;;;;18.05;12.95;;;-0.70;99.90;;;;;;5034092;28;93239;-72
2023/01/18 04:04:43;;;;;;;16.45;12.15;;;-0.70;99.90;;;;;;5017272;28;95695;-72
2023/01/18 04:07:10;;;;;;;20.23;12.43;;;-0.70;99.90;;;;;;5000522;28;102018;-72
2023/01/18 04:09:37;;;;;;;15.98;12.02;;;-0.70;99.90;;;;;;5035576;28;92410;-72
2023/01/18 04:12:04;;;;;;;16.33;11.63;;;-0.70;99.90;;;;;;5032426;28;95567;-72
2023/01/18 04:14:32;;;;;;;14.70;12.07;;;-0.70;99.90;;;;;;5033767;28;97927;-72
2023/01/18 04:16:59;;;;;;;18.67;11.85;;;-0.70;99.90;;;;;;5034518;28;92377;-72
2023/01/18 04:19:27;;;;;;;15.57;11.65;;;-0.60;99.90;;;;;;5035277;28;92898;-72
2023/01/18 04:21:54;;;;;;;11.88;8.65;;;-0.60;99.90;;;;;;5034696;28;93217;-73
2023/01/18 04:24:21;;;;;;;12.07;10.10;;;-0.60;99.90;;;;;;5000768;28;95537;-72
2023/01/18 04:26:48;;;;;;;14.98;10.95;;;-0.60;99.90;;;;;;5033733;28;92944;-72
2023/01/18 04:29:14;;;;;;;15.23;10.88;;;-0.60;99.90;;;;;;5033986;28;91776;-72
2023/01/18 04:31:41;;;;;;;15.05;10.68;;;-0.60;99.90;;;;;;5033191;28;96438;-72
2023/01/18 04:34:09;;;;;;;15.88;10.80;;;-0.60;99.90;;;;;;5033350;28;93155;-72
2023/01/18 04:36:36;;;;;;;14.95;11.15;;;-0.60;99.90;;;;;;5032527;28;95281;-72
2023/01/18 04:39:03;;;;;;;13.52;10.65;;;-0.60;99.90;;;;;;5033658;28;92509;-73
2023/01/18 04:41:30;;;;;;;14.10;10.52;;;-0.60;99.90;;;;;;5034687;28;93363;-73
2023/01/18 04:43:57;;;;;;;14.52;10.75;;;-0.60;99.90;;;;;;5034957;27;93058;-73
2023/01/18 04:46:24;;;;;;;13.52;9.70;;;-0.60;99.90;;;;;;5038404;28;92445;-71
2023/01/18 04:48:51;;;;;;;13.75;11.07;;;-0.60;99.90;;;;;;5038669;28;93479;-72
2023/01/18 04:51:18;;;;;;;17.17;10.43;;;-0.60;99.90;;;;;;5037201;28;93170;-72
2023/01/18 04:53:45;;;;;;;15.43;10.20;;;-0.60;99.90;;;;;;5038609;28;91922;-72
2023/01/18 04:56:12;;;;;;;16.38;10.80;;;-0.60;99.90;;;;;;5038167;28;93184;-72
2023/01/18 04:58:39;;;;;;;13.05;10.23;;;-0.60;99.90;;;;;;5036542;28;92515;-72
2023/01/18 05:01:08;;;;;;;11.57;9.32;;;-0.60;99.90;;;;;;5018372;28;98152;-72
2023/01/18 05:03:37;;;;;;;12.57;9.63;;;-0.60;99.90;;;;;;5038571;28;95416;-72
2023/01/18 05:06:09;;;;;;;14.15;9.90;;;-0.60;99.90;;;;;;5038504;28;92471;-72
2023/01/18 05:08:39;;;;;;;12.95;9.57;;;-0.60;99.90;;;;;;5038901;28;92852;-72
2023/01/18 05:11:09;;;;;;;12.98;9.45;;;-0.60;99.90;;;;;;5020754;28;96188;-72
2023/01/18 05:13:37;;;;;;;12.23;9.52;;;-0.60;99.90;;;;;;5038421;28;93084;-72
2023/01/18 05:16:05;;;;;;;18.20;10.75;;;-0.60;99.90;;;;;;5037138;28;92485;-72
2023/01/18 05:18:32;;;;;;;12.63;10.05;;;-0.60;99.90;;;;;;5036997;28;92529;-72
2023/01/18 05:20:59;;;;;;;13.32;9.63;;;-0.60;99.90;;;;;;5037411;28;93775;-72
2023/01/18 05:23:26;;;;;;;13.27;9.80;;;-0.60;99.90;;;;;;5038463;28;92783;-73
2023/01/18 05:25:55;;;;;;;11.27;9.75;;;-0.60;99.90;;;;;;5037099;28;94859;-72
2023/01/18 05:28:25;;;;;;;17.73;9.75;;;-0.50;99.90;;;;;;5036793;28;93108;-72
2023/01/18 05:30:54;;;;;;;13.45;9.68;;;-0.50;99.90;;;;;;5036497;28;93321;-72
2023/01/18 05:33:22;;;;;;;13.32;9.75;;;-0.50;99.90;;;;;;5035844;28;101344;-72
2023/01/18 05:35:51;;;;;;;15.25;10.32;;;-0.50;99.90;;;;;;5038487;27;92385;-72
2023/01/18 05:38:18;;;;;;;14.98;10.32;;;-0.50;99.90;;;;;;5019131;28;92545;-72
2023/01/18 05:40:48;;;;;;;16.83;11.18;;;-0.50;99.90;;;;;;5037238;28;93584;-72
2023/01/18 05:43:15;;;;;;;15.05;10.95;;;-0.50;99.90;;;;;;5019629;28;96381;-72
2023/01/18 05:45:42;;;;;;;16.20;11.25;;;-0.50;99.90;;;;;;5037722;28;93022;-73
2023/01/18 05:48:10;;;;;;;17.25;11.07;;;-0.50;99.90;;;;;;5037131;28;92475;-73
2023/01/18 05:50:45;;;;;;;18.33;11.55;;;-0.50;99.90;;;;;;5035765;28;95771;-73
2023/01/18 05:53:15;;;;;;;14.50;10.57;;;-0.50;99.90;;;;;;5018898;28;97827;-73
2023/01/18 05:55:42;;;;;;;14.95;10.63;;;-0.50;99.90;;;;;;5036883;28;92358;-72
2023/01/18 05:58:09;;;;;;;14.10;11.13;;;-0.50;99.90;;;;;;5018870;28;92629;-72
2023/01/18 06:00:36;;;;;;;16.23;11.43;;;-0.50;99.90;;;;;;5035693;28;96158;-72
2023/01/18 06:03:03;;;;;;;15.25;11.15;;;-0.50;99.90;;;;;;5035501;28;95802;-73
2023/01/18 06:05:30;;;;;;;16.45;11.63;;;-0.50;99.90;;;;;;5035770;28;92556;-72
2023/01/18 06:07:57;;;;;;;14.68;10.93;;;-0.50;99.90;;;;;;5037436;28;91716;-71
2023/01/18 06:10:24;;;;;;;13.52;10.82;;;-0.50;99.90;;;;;;5036633;28;93203;-74
2023/01/18 06:12:51;;;;;;;15.07;10.77;;;-0.50;99.90;;;;;;5035804;28;93074;-71
2023/01/18 06:15:18;;;;;;;16.08;11.38;;;-0.50;99.90;;;;;;5034086;28;94812;-72
2023/01/18 06:17:48;;;;;;;14.88;11.40;;;-0.50;99.90;;;;;;5035277;28;92392;-72
2023/01/18 06:20:15;;;;;;;18.27;11.93;;;-0.50;99.90;;;;;;5018429;28;96181;-72
2023/01/18 06:22:44;;;;;;;15.07;11.27;;;-0.50;99.90;;;;;;5035352;28;95738;-72
2023/01/18 06:25:11;;;;;;;16.83;11.40;;;-0.60;99.90;;;;;;5035113;28;92447;-72
2023/01/18 06:27:38;;;;;;;17.48;11.50;;;-0.50;99.90;;;;;;5035693;28;92522;-72
2023/01/18 06:30:06;;;;;;;15.05;10.15;;;-0.50;99.90;;;;;;5036443;28;93197;-72
2023/01/18 06:32:33;;;;;;;16.20;11.07;;;-0.50;99.90;;;;;;5036883;28;92967;-72
2023/01/18 06:35:00;;;;;;;15.20;11.43;;;-0.50;99.90;;;;;;5036483;28;92449;-72
2023/01/18 06:37:27;;;;;;;15.73;11.55;;;-0.50;99.90;;;;;;5035217;28;92535;-72
2023/01/18 06:39:54;;;;;;;14.00;11.25;;;-0.50;99.90;;;;;;5017449;28;96108;-72
2023/01/18 06:42:22;;;;;;;15.95;11.77;;;-0.50;99.90;;;;;;5001318;28;98182;-72
2023/01/18 06:44:49;;;;;;;14.43;11.50;;;-0.50;99.90;;;;;;5034729;28;92475;-72
2023/01/18 06:47:18;;;;;;;22.30;11.93;;;-0.50;99.90;;;;;;5001724;28;92543;-72
2023/01/18 06:49:49;;;;;;;13.75;11.07;;;-0.50;99.90;;;;;;5018118;28;95782;-72
2023/01/18 06:52:16;;;;;;;17.77;11.48;;;-0.50;99.90;;;;;;5035017;28;93123;-72
2023/01/18 06:54:43;;;;;;;14.43;10.15;;;-0.50;99.90;;;;;;5018405;28;92493;-73
2023/01/18 06:57:11;;;;;;;17.40;10.55;;;-0.50;99.90;;;;;;5001849;28;92455;-72
2023/01/18 06:59:38;;;;;;;18.10;11.52;;;-0.50;99.90;;;;;;5036008;28;93038;-72
2023/01/18 07:02:06;;;;;;;15.45;10.65;;;-0.50;99.90;;;;;;5034984;28;93118;-72
2023/01/18 07:04:36;;;;;;;14.27;10.38;;;-0.50;99.90;;;;;;5033731;28;95201;-72
2023/01/18 07:07:03;;;;;;;16.92;10.55;;;-0.50;99.90;;;;;;5035568;28;92793;-73
2023/01/18 07:09:30;;;;;;;18.80;11.48;;;-0.50;99.90;;;;;;5034300;28;96061;-73
2023/01/18 07:11:57;;;;;;;14.65;11.02;;;-0.50;99.90;;;;;;5035571;28;93286;-73
2023/01/18 07:14:24;;;;;;;16.65;11.50;;;-0.50;99.90;;;;;;5017962;28;93108;-73
2023/01/18 07:16:51;;;;;;;19.85;11.02;;;-0.50;99.90;;;;;;5036018;28;93104;-73
2023/01/18 07:19:18;;;;;;;14.13;10.35;;;-0.50;99.90;;;;;;5035633;28;93192;-72
2023/01/18 07:21:45;;;;;;;16.83;10.32;;;-0.50;99.90;;;;;;5035053;28;93306;-73
2023/01/18 07:24:12;;;;;;;12.32;10.30;;;-0.50;99.90;;;;;;5034564;28;92586;-73
2023/01/18 07:26:39;;;;;;;12.95;10.40;;;-0.40;99.90;;;;;;5034803;28;92444;-73
2023/01/18 07:29:07;;;;;;;14.25;9.82;;;-0.50;99.90;;;;;;5033211;28;95544;-73
2023/01/18 07:31:37;;;;;;;13.07;9.90;;;-0.40;99.90;;;;;;5034839;28;95656;-73
2023/01/18 07:34:04;;;;;;;14.68;10.27;;;-0.50;99.90;;;;;;5018259;28;92620;-73
2023/01/18 07:36:31;;;;;;;16.92;10.40;;;-0.40;99.90;;;;;;5001005;28;92521;-73
2023/01/18 07:39:00;;;;;;;15.40;10.40;;;-0.40;99.90;;;;;;5035413;28;93331;-74
2023/01/18 07:41:27;;;;;;;14.60;10.63;;;-0.40;99.90;;;;;;5035365;28;93096;-73
2023/01/18 07:43:56;;;;;;;15.55;11.20;;;-0.40;99.90;;;;;;5035703;28;92430;-73
2023/01/18 07:46:25;;;;;;;14.75;10.63;;;-0.40;99.90;;;;;;5035930;28;91661;-73
2023/01/18 07:48:52;;;;;;;15.38;10.80;;;-0.40;99.90;;;;;;5034029;28;93338;-74
2023/01/18 07:51:23;;;;;;;14.45;10.45;;;-0.30;99.90;;;;;;5033937;28;93069;-72
2023/01/18 07:53:54;;;;;;;16.25;11.20;;;-0.30;99.90;;;;;;5033096;28;95250;-73
2023/01/18 07:56:22;;;;;;;14.10;10.57;;;-0.30;99.90;;;;;;5035514;28;92495;-72
2023/01/18 07:58:49;;;;;;;16.17;10.90;;;-0.30;99.90;;;;;;5033879;28;93428;-72
2023/01/18 08:01:19;;;;;;;15.45;10.38;;;-0.30;99.90;;;;;;5033469;28;96120;-72
2023/01/18 08:03:47;;;;;;;18.63;10.65;;;-0.30;99.90;;;;;;5034244;28;92966;-72
2023/01/18 08:06:18;;;;;;;12.40;10.32;;;-0.20;99.90;;;;;;5033671;28;92532;-72
2023/01/18 08:08:45;;;;;;;15.65;10.32;;;-0.20;99.90;;;;;;5035327;28;92494;-72
2023/01/18 08:11:13;;;;;;;15.90;11.10;;;-0.20;99.90;;;;;;5034306;28;93070;-73
2023/01/18 08:13:40;;;;;;;14.15;11.48;;;-0.10;99.90;;;;;;5035132;28;92911;-72
2023/01/18 08:16:10;;;;;;;16.17;11.13;;;-0.10;99.90;;;;;;5017340;28;92482;-72
2023/01/18 08:18:38;;;;;;;15.05;10.30;;;-0.10;99.90;;;;;;5031939;28;98213;-73
2023/01/18 08:21:09;;;;;;;17.80;11.75;;;0.00;99.90;;;;;;5033542;28;95504;-73
2023/01/18 08:23:40;;;;;;;14.02;10.93;;;0.00;99.90;;;;;;5035084;28;92481;-73
2023/01/18 08:26:09;;;;;;;13.82;10.18;;;0.10;99.90;;;;;;5033787;28;92449;-73
2023/01/18 08:28:36;;;;;;;13.02;10.55;;;0.20;99.90;;;;;;5016481;28;95814;-72
2023/01/18 08:31:09;;;;;;;16.45;11.30;;;0.20;99.90;;;;;;5033533;28;93491;-73
2023/01/18 08:33:44;;;;;;;17.50;12.10;;;0.20;99.90;;;;;;5033078;28;92534;-80
2023/01/18 08:36:16;;;;;;;13.40;10.88;;;0.30;99.90;;;;;;5034229;28;91777;-74
2023/01/18 08:38:48;;;;;;;19.73;11.93;;;0.30;99.90;;;;;;5034653;28;93265;-74
2023/01/18 08:41:16;;;;;;;13.98;10.63;;;0.30;99.90;;;;;;5035018;28;92390;-74
2023/01/18 08:43:46;;;;;;;16.85;11.40;;;0.30;99.90;;;;;;5033147;28;95363;-74
2023/01/18 08:46:14;;;;;;;35.92;10.45;;;0.30;99.90;;;;;;5035114;28;92422;-74
2023/01/18 08:48:42;;;;;;;14.88;11.10;;;0.40;99.90;;;;;;5032996;28;93345;-73
2023/01/18 08:51:10;;;;;;;15.30;10.43;;;0.40;99.90;;;;;;5016569;28;95536;-73
2023/01/18 08:53:37;;;;;;;16.90;11.00;;;0.40;99.90;;;;;;5033019;28;93132;-73
2023/01/18 08:56:05;;;;;;;18.60;11.02;;;0.50;99.90;;;;;;5034661;27;93239;-73
2023/01/18 08:58:32;;;;;;;14.70;10.73;;;0.50;99.90;;;;;;5016488;28;93343;-73
2023/01/18 09:01:04;;;;;;;16.58;11.50;;;0.60;99.90;;;;;;5034969;28;93451;-73
2023/01/18 09:03:31;;;;;;;15.02;10.63;;;0.70;99.90;;;;;;5033007;28;92439;-73
2023/01/18 09:06:02;;;;;;;14.02;11.32;;;0.70;99.90;;;;;;5034601;28;92631;-73
2023/01/18 09:08:30;;;;;;;18.67;11.65;;;0.80;99.90;;;;;;5032094;28;95659;-73
2023/01/18 09:11:05;;;;;;;15.27;10.02;;;0.90;99.90;;;;;;5034516;28;95434;-73
2023/01/18 09:13:32;;;;;;;13.00;9.82;;;1.00;99.90;;;;;;5033476;28;92438;-73
2023/01/18 09:16:04;;;;;;;16.95;10.88;;;1.00;99.90;;;;;;5035026;27;92413;-73
2023/01/18 09:18:31;;;;;;;15.38;11.25;;;1.10;99.90;;;;;;5034126;28;93194;-74
2023/01/18 09:21:07;;;;;;;17.05;9.73;;;1.20;99.90;;;;;;5032749;28;96211;-73
2023/01/18 09:23:36;;;;;;;14.20;10.48;;;1.30;99.90;;;;;;5034784;28;92418;-74
2023/01/18 09:26:11;;;;;;;14.02;9.48;;;1.40;99.90;;;;;;5015842;27;103755;-73
2023/01/18 09:28:38;;;;;;;14.52;10.20;;;1.40;99.90;;;;;;5013244;28;95879;-73
2023/01/18 09:31:11;;;;;;;13.77;10.45;;;1.50;99.90;;;;;;5015147;28;93003;-73
2023/01/18 09:33:38;;;;;;;12.18;10.07;;;1.50;99.90;;;;;;4997782;28;95352;-73
2023/01/18 09:36:11;;;;;;;13.65;9.73;;;1.60;99.90;;;;;;5000278;28;92541;-73
2023/01/18 09:38:39;;;;;;;13.10;10.15;;;1.70;99.90;;;;;;5016148;28;95584;-73
2023/01/18 09:41:20;;;;;;;14.50;10.48;;;1.80;99.90;;;;;;5017166;28;93804;-74
2023/01/18 09:43:52;;;;;;;14.38;10.15;;;1.80;99.90;;;;;;5017360;28;92972;-74
2023/01/18 09:46:21;;;;;;;12.95;9.75;;;1.90;99.90;;;;;;5016083;28;93304;-74
2023/01/18 09:49:01;;;;;;;12.68;10.38;;;2.00;99.90;;;;;;4999679;28;93355;-74
2023/01/18 09:51:41;;;;;;;11.48;8.60;;;2.20;99.90;;;;;;5015938;28;95868;-74
2023/01/18 09:54:08;;;;;;;13.25;9.68;;;2.30;99.90;;;;;;5016536;28;93011;-74
2023/01/18 09:56:54;;;;;;;13.45;9.40;;;2.50;99.90;;;;;;5015805;28;92437;-74
2023/01/18 09:59:46;;;;;;;12.45;9.07;;;2.60;99.90;;;;;;5015035;28;95732;-73
2023/01/18 10:02:23;;;;;;;16.20;9.25;;;2.80;99.90;;;;;;5017821;28;95533;-74
2023/01/18 10:05:03;;;;;;;10.98;9.25;;;2.80;99.90;;;;;;5017543;28;93053;-73
2023/01/18 10:07:33;;;;;;;10.57;8.75;;;2.90;99.90;;;;;;5017839;28;92885;-73
2023/01/18 10:10:02;;;;;;;11.63;9.10;;;2.90;99.90;;;;;;5017683;28;94649;-72
2023/01/18 10:12:45;;;;;;;13.65;8.73;;;2.90;99.90;;;;;;5016004;28;92545;-73
2023/01/18 10:15:21;;;;;;;12.32;9.15;;;3.00;99.90;;;;;;5015940;28;92381;-73
2023/01/18 10:17:52;;;;;;;9.70;8.10;;;3.00;99.90;;;;;;5016702;28;91831;-73
2023/01/18 10:20:24;;;;;;;10.40;8.48;;;3.00;99.90;;;;;;5017234;28;93263;-73
2023/01/18 10:23:18;;;;;;;11.00;8.20;;;3.00;99.90;;;;;;5015717;28;93204;-74
2023/01/18 10:25:59;;;;;;;11.50;8.10;;;3.10;99.90;;;;;;5014627;28;94878;-73
2023/01/18 10:28:46;;;;;;;11.25;7.70;;;3.10;99.90;;;;;;5016073;28;92656;-74
2023/01/18 10:31:28;;;;;;;10.48;7.60;;;3.20;99.90;;;;;;5015624;28;96038;-74
2023/01/18 10:33:59;;;;;;;9.15;7.82;;;3.30;99.90;;;;;;5015164;28;95559;-73
2023/01/18 10:36:37;;;;;;;9.15;7.93;;;3.30;99.90;;;;;;5015718;28;92512;-74
2023/01/18 10:39:22;;;;;;;11.27;8.30;;;3.40;99.90;;;;;;5017129;28;92677;-73
2023/01/18 10:41:50;;;;;;;9.48;7.53;;;3.40;99.90;;;;;;5015639;28;93239;-73
2023/01/18 10:44:17;;;;;;;9.70;7.70;;;3.40;99.90;;;;;;5015869;28;95752;-73
2023/01/18 10:46:47;;;;;;;11.40;7.53;;;3.50;99.90;;;;;;5015499;28;92587;-73
2023/01/18 10:49:32;;;;;;;8.40;7.57;;;3.50;99.90;;;;;;5015449;28;92597;-73
2023/01/18 10:52:16;;;;;;;9.73;7.68;;;3.60;99.90;;;;;;5015544;28;95496;-74
2023/01/18 10:54:54;;;;;;;9.45;7.20;;;3.70;99.90;;;;;;5015430;28;95848;-74
2023/01/18 10:57:42;;;;;;;8.27;7.22;;;3.70;99.90;;;;;;5017164;28;92424;-73
2023/01/18 11:00:32;;;;;;;9.68;7.35;;;3.70;99.90;;;;;;5015313;28;92463;-74
2023/01/18 11:03:02;;;;;;;10.20;7.30;;;3.80;99.90;;;;;;5016348;28;93632;-74
2023/01/18 11:05:38;;;;;;;11.70;7.47;;;3.80;99.90;;;;;;5016444;28;92807;-74
2023/01/18 11:08:24;;;;;;;8.02;6.50;;;3.90;99.90;;;;;;5015490;28;92511;-73
2023/01/18 11:11:14;;;;;;;8.95;7.05;;;4.00;99.90;;;;;;5016731;28;91751;-74
2023/01/18 11:13:47;;;;;;;7.80;6.50;;;4.00;99.90;;;;;;5015336;28;93172;-74
2023/01/18 11:16:16;;;;;;;11.77;6.35;;;4.00;99.90;;;;;;5016513;28;93363;-74
2023/01/18 11:19:04;;;;;;;10.90;6.03;;;4.10;99.90;;;;;;4997450;28;94911;-74
2023/01/18 11:21:49;;;;;;;9.93;5.88;;;4.20;99.90;;;;;;4998453;28;92543;-73
2023/01/18 11:24:25;;;;;;;8.82;6.55;;;4.20;99.90;;;;;;5014961;28;95578;-74
2023/01/18 11:27:04;;;;;;;7.13;6.15;;;4.20;99.90;;;;;;5014450;28;95239;-74
2023/01/18 11:29:34;;;;;;;7.63;5.97;;;4.30;99.90;;;;;;5015159;28;92551;-74
2023/01/18 11:32:05;;;;;;;9.90;6.50;;;4.30;99.90;;;;;;5016498;28;93157;-74
2023/01/18 11:34:38;;;;;;;7.03;5.90;;;4.40;99.90;;;;;;5014353;28;93436;-74
2023/01/18 11:37:25;;;;;;;6.53;5.78;;;4.50;99.90;;;;;;5016262;28;91785;-74
2023/01/18 11:39:52;;;;;;;7.22;5.70;;;4.50;99.90;;;;;;5016380;28;92337;-74
2023/01/18 11:42:33;;;;;;;6.88;5.75;;;4.50;99.90;;;;;;5014893;28;92667;-74
2023/01/18 11:45:39;;;;;;;7.47;6.57;;;4.60;99.90;;;;;;5014176;28;95477;-74
2023/01/18 11:48:15;;;;;;;8.73;5.72;;;4.70;99.90;;;;;;5015713;28;95413;-74
2023/01/18 11:50:47;;;;;;;8.90;5.82;;;4.70;99.90;;;;;;5014637;28;92462;-74
2023/01/18 11:53:26;;;;;;;8.13;4.95;;;4.70;99.90;;;;;;5015621;28;92327;-75
2023/01/18 11:56:18;;;;;;;6.20;5.35;;;4.80;99.90;;;;;;5014579;28;93323;-74
2023/01/18 11:58:44;;;;;;;7.85;5.35;;;4.80;99.90;;;;;;5015960;28;92880;-75
2023/01/18 12:01:49;;;;;;;6.57;5.30;;;4.80;99.90;;;;;;5015819;28;92347;-74
2023/01/18 12:04:44;;;;;;;6.82;5.47;;;4.90;99.90;;;;;;5015235;28;91830;-75
2023/01/18 12:07:38;;;;;;;7.10;5.50;;;4.90;99.90;;;;;;5015726;28;93161;-75
2023/01/18 12:10:14;;;;;;;7.25;5.47;;;5.00;99.90;;;;;;5030827;27;95849;-74
2023/01/18 12:12:55;;;;;;;8.48;5.63;;;5.00;99.90;;;;;;5014739;28;94710;-74
2023/01/18 12:15:47;;;;;;;6.35;5.53;;;5.00;99.90;;;;;;5015961;28;92403;-74
2023/01/18 12:18:17;;;;;;;10.65;5.53;;;5.10;99.90;;;;;;5015234;28;93318;-74
2023/01/18 12:21:09;;;;;;;5.88;5.25;;;5.10;99.90;;;;;;5015366;28;92983;-74
2023/01/18 12:24:03;;;;;;;7.10;5.63;;;5.10;99.90;;;;;;5014592;28;92563;-74
2023/01/18 12:26:51;;;;;;;9.98;5.70;;;5.20;99.90;;;;;;5009782;28;92542;-74
2023/01/18 12:29:37;;;;;;;9.90;5.72;;;5.20;99.90;;;;;;4997118;28;93695;-74
2023/01/18 12:32:42;;;;;;;7.40;5.72;;;5.30;99.90;;;;;;5013947;28;95045;-74
2023/01/18 12:35:15;;;;;;;8.15;5.60;;;5.30;99.90;;;;;;5014925;28;92496;-75
2023/01/18 12:38:08;;;;;;;9.60;5.10;;;5.30;99.90;;;;;;5015561;28;93257;-75
2023/01/18 12:41:25;;;;;;;8.05;5.32;;;5.40;99.90;;;;;;5012473;28;98393;-75
2023/01/18 12:44:27;;;;;;;7.53;5.68;;;5.40;99.90;;;;;;4972687;28;98071;-74
2023/01/18 12:47:15;;;;;;;7.45;5.75;;;5.40;99.90;;;;;;5015306;28;92329;-74
2023/01/18 12:49:49;;;;;;;5.38;4.80;;;5.40;99.90;;;;;;5015351;28;92450;-75
2023/01/18 12:52:20;;;;;;;6.57;5.00;;;5.40;99.90;;;;;;5013518;28;94463;-75
2023/01/18 12:54:50;;;;;;;7.60;5.13;;;5.50;99.90;;;;;;4997426;28;95774;-74
2023/01/18 12:57:19;;;;;;;5.95;4.82;;;5.50;99.90;;;;;;4997211;28;92526;-75
2023/01/18 13:00:01;;;;;;;7.05;5.13;;;5.50;99.90;;;;;;5013838;28;91701;-74
2023/01/18 13:02:35;;;;;;;6.97;5.03;;;5.60;99.90;;;;;;5015175;28;93182;-75
2023/01/18 13:05:06;;;;;;;8.50;4.90;;;5.60;99.90;;;;;;5015436;28;93036;-75
2023/01/18 13:07:55;;;;;;;7.47;5.03;;;5.70;99.90;;;;;;5017654;28;94746;-75
2023/01/18 13:10:27;;;;;;;12.70;4.85;;;5.70;99.90;;;;;;5016554;28;92617;-74
2023/01/18 13:12:56;;;;;;;7.13;4.65;;;5.60;99.90;;;;;;5017231;28;93223;-73
2023/01/18 13:15:37;;;;;;;6.13;4.60;;;5.60;99.90;;;;;;5000214;28;93015;-74
2023/01/18 13:18:35;;;;;;;5.68;4.45;;;5.70;99.90;;;;;;5018429;28;92413;-74
2023/01/18 13:21:20;;;;;;;5.22;4.15;;;5.70;99.90;;;;;;4992144;28;92546;-75
2023/01/18 13:24:25;;;;;;;7.68;4.10;;;5.70;99.90;;;;;;5016571;28;95766;-74
2023/01/18 13:27:11;;;;;;;5.90;3.47;;;5.70;99.90;;;;;;5017288;28;93084;-74
2023/01/18 13:29:39;;;;;;;4.28;3.75;;;5.70;99.90;;;;;;5017396;28;92522;-74
2023/01/18 13:32:44;;;;;;;6.40;4.40;;;5.70;99.90;;;;;;5017838;28;92464;-73
2023/01/18 13:35:32;;;;;;;5.25;4.28;;;5.80;99.90;;;;;;5015029;28;95994;-73
2023/01/18 13:38:09;;;;;;;6.15;3.83;;;5.80;99.90;;;;;;5017932;28;95288;-73
2023/01/18 13:40:40;;;;;;;7.00;4.03;;;5.80;99.90;;;;;;5016750;28;93037;-73
2023/01/18 13:43:29;;;;;;;5.40;4.00;;;5.80;99.90;;;;;;5018053;28;92662;-73
2023/01/18 13:46:06;;;;;;;8.52;4.10;;;5.90;99.90;;;;;;5016812;28;93250;-73